Time;durP1;ratioP1;P1;durP2;ratioP2;P2;SDS_P1;SDS_P2;PMS_P1;PMS_P2;Temp;Humidity;BMP_temperature;BMP_pressure;BME280_temperature;BME280_humidity;BME280_pressure;Samples;Min_cycle;Max_cycle;Signal;HPM_P1;HPM_P2
2021/04/05 00:01:33;;;;;;;22.23;9.48;;;2.90;99.90;;;;;;6739407;88;20198;-75
2021/04/05 00:11:34;;;;;;;22.98;8.85;;;2.80;99.90;;;;;;6737834;88;20208;-75
2021/04/05 00:21:35;;;;;;;20.50;8.38;;;2.90;99.90;;;;;;6739299;88;20197;-74
2021/04/05 00:31:35;;;;;;;25.90;8.55;;;2.70;99.90;;;;;;6739063;88;20382;-75
2021/04/05 00:41:36;;;;;;;24.45;8.77;;;2.60;99.90;;;;;;6738949;88;20574;-74
2021/04/05 00:51:37;;;;;;;19.83;8.38;;;2.60;99.90;;;;;;6738874;88;20220;-75
2021/04/05 01:01:37;;;;;;;20.62;8.05;;;2.60;99.90;;;;;;6739007;88;20676;-75
2021/04/05 01:11:38;;;;;;;22.35;8.50;;;2.70;99.90;;;;;;6739101;88;21059;-75
2021/04/05 01:21:39;;;;;;;22.65;8.77;;;2.80;99.90;;;;;;6741237;88;20224;-77
2021/04/05 01:31:40;;;;;;;28.27;9.20;;;2.80;99.90;;;;;;6740319;88;20702;-75
2021/04/05 01:41:41;;;;;;;22.73;8.88;;;2.70;99.90;;;;;;6737019;88;20287;-77
2021/04/05 01:51:41;;;;;;;18.95;8.25;;;2.60;99.90;;;;;;6736286;88;20721;-77
2021/04/05 02:01:42;;;;;;;20.73;9.07;;;2.70;99.90;;;;;;6740507;88;20207;-76
2021/04/05 02:11:43;;;;;;;24.45;8.98;;;2.60;99.90;;;;;;6739942;88;20184;-76
2021/04/05 02:21:47;;;;;;;21.90;8.93;;;2.70;99.90;;;;;;6739308;88;20196;-75
2021/04/05 02:31:48;;;;;;;28.60;9.80;;;3.00;99.90;;;;;;6736050;88;20192;-76
2021/04/05 02:41:50;;;;;;;26.33;10.73;;;3.00;99.90;;;;;;6736833;88;20245;-76
2021/04/05 02:51:51;;;;;;;25.23;9.65;;;3.00;99.90;;;;;;6740863;88;20754;-73
2021/04/05 03:01:53;;;;;;;28.48;10.25;;;3.10;99.90;;;;;;6740555;88;20665;-76
2021/04/05 03:11:57;;;;;;;24.27;9.82;;;3.20;99.90;;;;;;6740515;88;20201;-75
2021/04/05 03:21:58;;;;;;;23.95;9.15;;;3.10;99.90;;;;;;6736583;88;20198;-75
2021/04/05 03:32:00;;;;;;;26.15;9.95;;;3.10;99.90;;;;;;6738909;88;20302;-77
2021/04/05 03:42:06;;;;;;;21.42;9.18;;;3.10;99.90;;;;;;6737761;88;20647;-77
2021/04/05 03:52:19;;;;;;;25.43;9.70;;;3.10;99.90;;;;;;6736725;88;20218;-76
2021/04/05 04:02:23;;;;;;;28.58;10.15;;;3.10;99.90;;;;;;6739062;88;20265;-75
2021/04/05 04:12:25;;;;;;;22.87;8.63;;;3.30;99.90;;;;;;6738035;88;20567;-76
2021/04/05 04:22:26;;;;;;;23.55;9.75;;;3.60;99.90;;;;;;6740312;88;20202;-75
2021/04/05 04:32:26;;;;;;;21.70;9.55;;;3.60;99.90;;;;;;6740412;88;20208;-76
2021/04/05 04:42:27;;;;;;;20.88;9.30;;;3.60;99.90;;;;;;6747293;77;21055;-75
2021/04/05 04:52:27;;;;;;;27.30;9.85;;;3.90;99.90;;;;;;6725332;88;20185;-75
2021/04/05 05:02:30;;;;;;;23.83;9.88;;;4.10;99.90;;;;;;6737031;88;20200;-75
2021/04/05 05:12:31;;;;;;;23.80;9.40;;;4.60;99.90;;;;;;6728396;88;20620;-74
2021/04/05 05:22:35;;;;;;;25.37;9.35;;;5.70;99.90;;;;;;6733791;88;20190;-75
2021/04/05 05:32:36;;;;;;;29.30;10.10;;;6.20;99.90;;;;;;6728895;88;20681;-75
2021/04/05 05:42:40;;;;;;;23.35;9.38;;;6.50;99.90;;;;;;6733338;88;20208;-75
2021/04/05 05:53:07;;;;;;;25.83;10.48;;;6.60;99.90;;;;;;6734423;88;20185;-75
2021/04/05 06:03:31;;;;;;;30.37;12.07;;;6.80;99.90;;;;;;6749100;88;20185;-75
2021/04/05 06:13:44;;;;;;;29.42;11.95;;;6.80;99.90;;;;;;6742175;88;20157;-75
2021/04/05 06:23:50;;;;;;;27.73;12.20;;;6.90;99.90;;;;;;6732593;88;20270;-75
2021/04/05 06:33:53;;;;;;;35.40;12.73;;;6.90;99.90;;;;;;6736308;88;20194;-74
2021/04/05 06:44:26;;;;;;;31.12;12.70;;;6.90;99.90;;;;;;6734043;88;20201;-75
2021/04/05 06:54:57;;;;;;;28.08;11.95;;;6.90;99.90;;;;;;6733405;88;20197;-75
2021/04/05 07:05:29;;;;;;;28.73;13.30;;;7.00;99.90;;;;;;6750625;88;20981;-75
2021/04/05 07:15:42;;;;;;;24.67;11.12;;;7.00;99.90;;;;;;6733806;88;20185;-75
2021/04/05 07:26:01;;;;;;;34.05;13.45;;;7.00;99.90;;;;;;6739167;88;20188;-74
2021/04/05 07:36:21;;;;;;;24.08;11.20;;;6.90;99.90;;;;;;6733490;88;20219;-74
2021/04/05 07:46:48;;;;;;;24.67;11.05;;;6.80;99.90;;;;;;6740748;88;20205;-75
2021/04/05 07:56:52;;;;;;;34.30;14.50;;;6.50;99.90;;;;;;6732601;88;20189;-74
2021/04/05 08:07:00;;;;;;;33.33;13.43;;;6.40;99.90;;;;;;6731056;88;20193;-74
2021/04/05 08:17:38;;;;;;;25.90;12.13;;;6.40;99.90;;;;;;6727905;88;20197;-75
2021/04/05 08:28:01;;;;;;;27.90;11.70;;;6.60;99.90;;;;;;6726363;88;20231;-75
2021/04/05 08:38:24;;;;;;;18.98;7.18;;;6.80;99.90;;;;;;6722791;88;20201;-74
2021/04/05 08:48:29;;;;;;;20.17;9.63;;;6.90;99.90;;;;;;6729692;88;20632;-74
2021/04/05 08:58:45;;;;;;;25.00;10.80;;;6.80;99.90;;;;;;6737154;88;20188;-74
2021/04/05 09:08:49;;;;;;;19.80;9.70;;;6.70;99.90;;;;;;6731499;88;20169;-74
2021/04/05 09:19:15;;;;;;;9.93;4.68;;;6.70;99.90;;;;;;6739973;88;20185;-74
2021/04/05 09:29:37;;;;;;;8.55;3.40;;;5.20;99.90;;;;;;6704337;88;20219;-73
2021/04/05 09:39:48;;;;;;;10.05;3.90;;;4.60;99.90;;;;;;6704139;88;20182;-73
2021/04/05 09:50:20;;;;;;;14.55;5.60;;;4.40;99.90;;;;;;6725306;88;20755;-73
2021/04/05 10:00:22;;;;;;;10.73;4.30;;;4.40;99.90;;;;;;6703901;88;20625;-73
2021/04/05 10:10:25;;;;;;;10.70;4.28;;;4.30;99.90;;;;;;6725983;88;20246;-74
2021/04/05 10:20:29;;;;;;;14.32;5.95;;;4.40;99.90;;;;;;6734382;88;20177;-75
2021/04/05 10:30:33;;;;;;;3.85;1.55;;;4.40;99.90;;;;;;6726321;88;20208;-74
2021/04/05 10:50:44;;;;;;;5.72;0.75;;;3.50;99.90;;;;;;6731066;88;20310;-74
2021/04/05 11:00:50;;;;;;;6.37;1.48;;;3.10;99.90;;;;;;6736706;88;20177;-78
2021/04/05 11:11:01;;;;;;;9.57;1.60;;;3.20;99.90;;;;;;6742931;88;20196;-74
2021/04/05 11:21:03;;;;;;;4.45;1.15;;;3.10;99.90;;;;;;6741275;88;20269;-74
2021/04/05 11:31:17;;;;;;;9.15;2.75;;;3.20;99.90;;;;;;6743056;88;20187;-74
2021/04/05 11:41:25;;;;;;;10.23;1.83;;;3.20;99.90;;;;;;6738101;88;20685;-74
2021/04/05 11:51:32;;;;;;;6.20;1.40;;;3.50;99.90;;;;;;6732405;88;20209;-74
2021/04/05 12:01:38;;;;;;;8.52;1.48;;;3.80;99.90;;;;;;6734327;88;20310;-74
2021/04/05 12:11:52;;;;;;;3.47;0.73;;;3.80;99.90;;;;;;6735259;88;20238;-74
2021/04/05 12:21:54;;;;;;;3.05;0.68;;;1.80;99.90;;;;;;6734612;88;20204;-74
2021/04/05 12:31:57;;;;;;;3.80;0.65;;;1.90;99.90;;;;;;6738847;88;20388;-74
2021/04/05 12:41:59;;;;;;;3.65;0.90;;;2.40;99.90;;;;;;6742554;88;20501;-74
2021/04/05 12:52:03;;;;;;;6.25;1.30;;;3.60;99.90;;;;;;6734077;88;20643;-74
2021/04/05 13:02:10;;;;;;;5.20;1.67;;;4.40;99.90;;;;;;6737795;88;20193;-74
2021/04/05 13:12:18;;;;;;;4.57;1.00;;;4.20;99.90;;;;;;6750866;88;20218;-75
2021/04/05 13:22:22;;;;;;;5.37;1.12;;;4.20;99.90;;;;;;6757932;88;20195;-76
2021/04/05 13:32:26;;;;;;;4.53;1.65;;;4.70;99.90;;;;;;6751897;88;20175;-76
2021/04/05 13:42:29;;;;;;;6.15;1.40;;;3.60;99.90;;;;;;6752911;87;20229;-75
2021/04/05 13:52:32;;;;;;;10.55;1.35;;;3.60;99.90;;;;;;6749357;88;20252;-76
2021/04/05 14:02:42;;;;;;;8.00;1.33;;;5.30;99.90;;;;;;6747984;88;20600;-75
2021/04/05 14:12:47;;;;;;;5.87;1.23;;;6.50;99.90;;;;;;6755001;88;20612;-76
2021/04/05 14:22:54;;;;;;;4.57;1.20;;;3.50;99.90;;;;;;6744260;88;20362;-76
2021/04/05 14:32:56;;;;;;;2.80;0.85;;;4.40;99.90;;;;;;6742473;88;20574;-75
2021/04/05 14:43:03;;;;;;;7.62;0.95;;;5.40;99.90;;;;;;6752505;87;20289;-75
2021/04/05 14:53:24;;;;;;;5.55;1.00;;;6.70;99.90;;;;;;6745451;88;20587;-75
2021/04/05 15:03:30;;;;;;;4.75;1.12;;;7.10;99.90;;;;;;6743200;88;20203;-74
2021/04/05 15:13:34;;;;;;;3.00;0.70;;;6.70;99.90;;;;;;6757561;88;20656;-75
2021/04/05 15:23:38;;;;;;;6.53;1.17;;;5.80;99.90;;;;;;6756422;88;20310;-75
2021/04/05 15:33:41;;;;;;;8.10;0.70;;;6.20;98.50;;;;;;6756116;88;20180;-74
2021/04/05 15:43:49;;;;;;;2.33;0.50;;;6.40;95.60;;;;;;6755647;88;20240;-75
2021/04/05 15:53:58;;;;;;;2.90;0.30;;;6.00;82.10;;;;;;6752036;88;20204;-74
2021/04/05 16:04:15;;;;;;;3.12;0.40;;;5.00;80.80;;;;;;6755088;88;20171;-75
2021/04/05 16:14:24;;;;;;;3.67;0.60;;;5.00;83.60;;;;;;6751123;88;20194;-75
2021/04/05 16:24:33;;;;;;;2.33;0.47;;;5.10;83.90;;;;;;6755592;88;20176;-74
2021/04/05 16:34:36;;;;;;;5.62;0.57;;;4.90;89.70;;;;;;6754989;88;20254;-74
2021/04/05 16:44:53;;;;;;;1.87;0.40;;;4.80;93.40;;;;;;6753417;76;20739;-73
2021/04/05 16:55:00;;;;;;;2.45;0.50;;;4.30;94.50;;;;;;6734090;88;20177;-76
2021/04/05 17:05:03;;;;;;;3.25;0.60;;;4.20;99.90;;;;;;6730982;88;20210;-75
2021/04/05 17:15:06;;;;;;;3.92;0.60;;;4.00;99.90;;;;;;6732418;88;20345;-76
2021/04/05 17:25:12;;;;;;;3.67;0.30;;;3.70;99.90;;;;;;6740343;88;20754;-76
2021/04/05 17:35:25;;;;;;;1.35;0.50;;;3.50;99.90;;;;;;6736789;88;20197;-76
2021/04/05 17:45:31;;;;;;;3.28;0.40;;;3.40;99.90;;;;;;6735864;88;20214;-76
2021/04/05 17:55:54;;;;;;;2.57;0.40;;;3.10;99.90;;;;;;6736492;88;20712;-76
2021/04/05 18:06:02;;;;;;;4.35;0.30;;;2.70;99.90;;;;;;6735763;88;20853;-76
2021/04/05 18:16:41;;;;;;;3.85;0.50;;;2.40;99.90;;;;;;6743322;88;20177;-75
2021/04/05 18:26:59;;;;;;;2.33;0.45;;;2.30;99.90;;;;;;6743578;88;20204;-76
2021/04/05 18:37:17;;;;;;;2.95;0.62;;;2.30;99.90;;;;;;6746059;88;20808;-76
2021/04/05 18:47:27;;;;;;;1.42;0.60;;;2.10;99.90;;;;;;6742250;88;20211;-76
2021/04/05 18:57:38;;;;;;;3.53;0.70;;;1.80;99.90;;;;;;6747969;88;20221;-77
2021/04/05 19:07:45;;;;;;;2.03;0.57;;;1.50;99.90;;;;;;6741613;88;20208;-75
2021/04/05 19:18:27;;;;;;;4.05;0.57;;;1.40;99.90;;;;;;6737434;88;20332;-75
2021/04/05 19:28:38;;;;;;;5.43;0.85;;;1.30;99.90;;;;;;6736979;88;20236;-76
2021/04/05 19:38:45;;;;;;;3.08;0.70;;;1.10;99.90;;;;;;6734462;88;20173;-76
2021/04/05 19:49:10;;;;;;;3.75;0.85;;;1.10;99.90;;;;;;6733117;88;20296;-76
2021/04/05 19:59:19;;;;;;;3.17;0.90;;;1.00;99.90;;;;;;6737474;88;20221;-77
2021/04/05 20:09:47;;;;;;;6.20;1.25;;;0.90;99.90;;;;;;6736545;88;20295;-76
2021/04/05 20:19:54;;;;;;;4.70;1.17;;;0.90;99.90;;;;;;6735053;88;20166;-77
2021/04/05 20:30:25;;;;;;;4.50;1.20;;;0.90;99.90;;;;;;6739827;88;20205;-76
2021/04/05 20:40:45;;;;;;;6.47;0.98;;;0.80;99.90;;;;;;6728913;88;20182;-76
2021/04/05 20:50:59;;;;;;;4.57;1.02;;;0.80;99.90;;;;;;6730690;88;20308;-76
2021/04/05 21:01:03;;;;;;;5.78;1.00;;;0.70;99.90;;;;;;6737984;88;20226;-75
2021/04/05 21:11:14;;;;;;;2.50;0.80;;;0.70;99.90;;;;;;6745393;88;20672;-76
2021/04/05 21:21:35;;;;;;;9.45;1.25;;;0.70;99.90;;;;;;6743247;88;20182;-76
2021/04/05 21:31:36;;;;;;;10.07;1.62;;;0.70;99.90;;;;;;6737645;88;20207;-75
2021/04/05 21:41:43;;;;;;;6.62;1.20;;;0.80;99.90;;;;;;6730019;88;20189;-76
2021/04/05 21:52:33;;;;;;;5.20;1.17;;;0.90;99.90;;;;;;6744442;88;20193;-75
2021/04/05 22:02:35;;;;;;;8.48;1.10;;;1.00;99.90;;;;;;6694762;88;20209;-76
2021/04/05 22:12:36;;;;;;;11.65;1.30;;;1.10;99.90;;;;;;6736152;88;20182;-76
2021/04/05 22:22:37;;;;;;;7.80;1.05;;;1.20;99.90;;;;;;6750585;88;20211;-76
2021/04/05 22:32:38;;;;;;;12.23;1.05;;;1.30;99.90;;;;;;6748938;88;20150;-75
2021/04/05 22:42:42;;;;;;;6.95;1.25;;;1.40;99.90;;;;;;6749640;88;20704;-76
2021/04/05 22:52:58;;;;;;;4.78;0.80;;;1.40;99.90;;;;;;6739003;88;20731;-75
2021/04/05 23:03:21;;;;;;;10.75;1.62;;;1.40;99.90;;;;;;6753973;88;20169;-75
2021/04/05 23:13:27;;;;;;;10.82;1.83;;;1.30;99.90;;;;;;6748449;88;20188;-74
2021/04/05 23:23:40;;;;;;;8.27;2.12;;;0.90;99.90;;;;;;6742816;88;20595;-74
2021/04/05 23:33:49;;;;;;;11.35;2.45;;;1.10;99.90;;;;;;6740006;88;20265;-74
2021/04/05 23:44:07;;;;;;;7.78;1.80;;;1.30;99.90;;;;;;6731300;88;20224;-74
2021/04/05 23:54:12;;;;;;;7.22;1.35;;;1.40;99.90;;;;;;6747272;88;20742;-74
